Time;durP1;ratioP1;P1;durP2;ratioP2;P2;SDS_P1;SDS_P2;PMS_P1;PMS_P2;Temp;Humidity;BMP_temperature;BMP_pressure;BME280_temperature;BME280_humidity;BME280_pressure;Samples;Min_cycle;Max_cycle;Signal;HPM_P1;HPM_P2
2024/03/31 00:00:14;;;;;;;;;;;9.40;88.50;;;;;;5093975;28;20305;-68
2024/03/31 00:02:50;;;;;;;;;;;9.30;88.60;;;;;;5092112;28;19924;-65
2024/03/31 00:05:22;;;;;;;;;;;9.30;88.60;;;;;;5094112;28;19981;-66
2024/03/31 00:07:55;;;;;;;;;;;9.30;88.60;;;;;;5095763;28;20327;-68
2024/03/31 00:10:27;;;;;;;;;;;9.30;88.60;;;;;;5093853;28;19931;-66
2024/03/31 00:12:55;;;;;;;;;;;9.30;88.70;;;;;;5089592;28;19999;-67
2024/03/31 00:15:27;;;;;;;;;;;9.30;88.70;;;;;;5095921;28;19924;-59
2024/03/31 00:18:00;;;;;;;;;;;9.30;88.70;;;;;;5087660;28;19936;-59
2024/03/31 00:20:32;;;;;;;;;;;9.30;88.70;;;;;;5082893;28;19939;-60
2024/03/31 00:23:05;;;;;;;;;;;9.30;88.70;;;;;;5089487;28;19932;-59
2024/03/31 00:25:38;;;;;;;;;;;9.30;88.70;;;;;;5098509;28;19930;-59
2024/03/31 00:28:13;;;;;;;;;;;9.30;88.90;;;;;;5091443;28;19924;-61
2024/03/31 00:30:51;;;;;;;;;;;9.30;88.90;;;;;;5095152;28;19932;-60
2024/03/31 00:33:24;;;;;;;;;;;9.30;88.90;;;;;;5097363;28;19976;-60
2024/03/31 00:35:51;;;;;;;;;;;9.30;88.80;;;;;;5096002;28;19923;-59
2024/03/31 00:38:24;;;;;;;;;;;9.30;88.80;;;;;;5089661;28;20008;-61
2024/03/31 00:40:56;;;;;;;;;;;9.30;88.90;;;;;;5093439;28;19931;-60
2024/03/31 00:43:24;;;;;;;;;;;9.30;89.10;;;;;;5075704;28;19932;-59
2024/03/31 00:45:56;;;;;;;;;;;9.40;89.00;;;;;;5078773;28;20022;-60
2024/03/31 00:48:29;;;;;;;;;;;9.30;89.00;;;;;;5083297;28;19924;-59
2024/03/31 00:51:01;;;;;;;;;;;9.30;89.00;;;;;;5096569;28;19932;-59
2024/03/31 00:53:34;;;;;;;;;;;9.30;89.00;;;;;;5089994;28;20023;-60
2024/03/31 00:56:10;;;;;;;;;;;9.30;89.00;;;;;;5109584;27;19972;-61
2024/03/31 00:58:45;;;;;;;;;;;9.30;89.00;;;;;;5074308;28;19932;-61
2024/03/31 01:01:18;;;;;;;;;;;9.30;89.10;;;;;;5096494;28;19931;-62
2024/03/31 01:03:51;;;;;;;;;;;9.40;89.00;;;;;;5094919;28;19924;-61
2024/03/31 01:06:24;;;;;;;;;;;9.30;89.10;;;;;;5074824;28;19930;-63
2024/03/31 01:08:57;;;;;;;;;;;9.40;89.10;;;;;;5092307;28;20011;-60
2024/03/31 01:11:36;;;;;;;;;;;9.40;89.00;;;;;;5090033;28;19927;-60
2024/03/31 01:14:11;;;;;;;;;;;9.40;89.00;;;;;;5075716;28;20015;-61
2024/03/31 01:16:43;;;;;;;;;;;9.30;89.10;;;;;;5092741;28;19937;-60
2024/03/31 01:19:16;;;;;;;;;;;9.30;89.10;;;;;;5094669;28;20007;-63
2024/03/31 01:21:48;;;;;;;;;;;9.30;89.10;;;;;;5079279;28;19932;-61
2024/03/31 01:24:23;;;;;;;;;;;9.30;89.20;;;;;;5087510;28;20010;-67
2024/03/31 01:26:55;;;;;;;;;;;9.30;89.10;;;;;;5058623;28;19954;-66
2024/03/31 01:29:28;;;;;;;;;;;9.30;89.20;;;;;;5069961;28;19936;-68
2024/03/31 01:32:00;;;;;;;;;;;9.20;89.10;;;;;;5078275;28;19932;-66
2024/03/31 01:34:27;;;;;;;;;;;9.20;89.30;;;;;;5077214;28;19992;-67
2024/03/31 01:37:01;;;;;;;;;;;9.30;89.30;;;;;;5091592;28;20023;-68
2024/03/31 01:39:29;;;;;;;;;;;9.30;89.30;;;;;;5091850;28;19924;-68
2024/03/31 01:42:16;;;;;;;;;;;9.30;89.40;;;;;;5076135;28;20416;-65
2024/03/31 01:44:49;;;;;;;;;;;9.30;89.40;;;;;;5095536;28;19928;-67
2024/03/31 01:47:21;;;;;;;;;;;9.30;89.40;;;;;;5071784;28;19928;-66
2024/03/31 01:49:54;;;;;;;;;;;9.30;89.20;;;;;;5108205;27;20039;-67
2024/03/31 01:52:26;;;;;;;;;;;9.30;89.30;;;;;;5087364;28;19924;-66
2024/03/31 01:55:01;;;;;;;;;;;9.20;89.40;;;;;;5109043;27;19928;-65
2024/03/31 01:57:33;;;;;;;;;;;9.20;89.40;;;;;;5091035;28;19959;-66
2024/03/31 02:00:07;;;;;;;;;;;9.20;89.40;;;;;;5111227;27;19924;-66
2024/03/31 02:02:44;;;;;;;;;;;9.20;89.50;;;;;;5076604;28;19924;-66
2024/03/31 02:05:17;;;;;;;;;;;9.20;89.60;;;;;;5093343;28;19963;-65
2024/03/31 02:07:50;;;;;;;;;;;9.20;89.60;;;;;;5094117;28;19963;-67
2024/03/31 02:10:25;;;;;;;;;;;9.20;89.70;;;;;;5091814;28;20039;-65
2024/03/31 02:12:57;;;;;;;;;;;9.20;89.70;;;;;;5092470;28;19927;-66
2024/03/31 02:15:30;;;;;;;;;;;9.30;89.70;;;;;;5092428;28;22421;-66
2024/03/31 02:18:03;;;;;;;;;;;9.30;89.80;;;;;;5074222;28;19932;-65
2024/03/31 02:20:45;;;;;;;;;;;9.30;89.70;;;;;;5091178;28;19924;-65
2024/03/31 02:23:17;;;;;;;;;;;9.30;89.60;;;;;;5095126;28;19970;-67
2024/03/31 02:25:52;;;;;;;;;;;9.30;89.70;;;;;;5094093;28;19967;-67
2024/03/31 02:28:24;;;;;;;;;;;9.20;89.60;;;;;;5065836;28;19967;-67
2024/03/31 02:30:59;;;;;;;;;;;9.20;89.70;;;;;;5105439;27;19928;-66
2024/03/31 02:33:34;;;;;;;;;;;9.20;89.80;;;;;;5079556;28;19924;-62
2024/03/31 02:36:10;;;;;;;;;;;9.30;89.80;;;;;;5105310;27;19930;-62
2024/03/31 02:38:42;;;;;;;;;;;9.30;89.80;;;;;;5092482;28;19924;-63
2024/03/31 02:41:17;;;;;;;;;;;9.30;89.70;;;;;;5110128;27;19932;-63
2024/03/31 02:43:49;;;;;;;;;;;9.30;89.90;;;;;;5070664;28;19981;-62
2024/03/31 02:46:16;;;;;;;;;;;9.30;89.80;;;;;;5106501;28;19924;-62
2024/03/31 02:48:48;;;;;;;;;;;9.30;89.90;;;;;;5073990;28;19924;-62
2024/03/31 02:51:21;;;;;;;;;;;9.30;89.90;;;;;;5090483;28;20025;-61
2024/03/31 02:53:53;;;;;;;;;;;9.30;89.90;;;;;;5075203;28;20381;-61
2024/03/31 02:56:28;;;;;;;;;;;9.30;89.90;;;;;;5096424;28;19941;-62
2024/03/31 02:59:02;;;;;;;;;;;9.30;89.90;;;;;;5080143;28;19932;-62
2024/03/31 03:01:34;;;;;;;;;;;9.30;89.90;;;;;;5071376;28;19924;-63
2024/03/31 03:04:06;;;;;;;;;;;9.30;89.90;;;;;;5094579;28;19933;-63
2024/03/31 03:06:39;;;;;;;;;;;9.30;89.90;;;;;;5070951;28;20403;-62
2024/03/31 03:09:11;;;;;;;;;;;9.30;89.90;;;;;;5093490;28;19923;-62
2024/03/31 03:11:46;;;;;;;;;;;9.30;89.90;;;;;;5081770;28;20159;-62
2024/03/31 03:14:18;;;;;;;;;;;9.30;89.90;;;;;;5087523;28;20005;-62
2024/03/31 03:16:52;;;;;;;;;;;9.30;89.90;;;;;;5049344;28;20333;-62
2024/03/31 03:19:34;;;;;;;;;;;9.30;89.90;;;;;;5072535;28;19924;-62
2024/03/31 03:22:08;;;;;;;;;;;9.20;90.00;;;;;;5060065;28;19932;-62
2024/03/31 03:24:39;;;;;;;;;;;9.20;89.90;;;;;;5079035;28;19924;-62
2024/03/31 03:27:07;;;;;;;;;;;9.20;89.90;;;;;;5104519;28;19935;-63
2024/03/31 03:29:39;;;;;;;;;;;9.20;89.90;;;;;;5067165;28;20307;-62
2024/03/31 03:32:17;;;;;;;;;;;9.20;89.90;;;;;;5091101;28;19933;-63
2024/03/31 03:34:50;;;;;;;;;;;9.20;89.90;;;;;;5081266;28;20024;-63
2024/03/31 03:37:23;;;;;;;;;;;9.20;89.90;;;;;;5080627;28;20287;-61
2024/03/31 03:39:56;;;;;;;;;;;9.20;89.90;;;;;;5080871;28;19928;-63
2024/03/31 03:42:34;;;;;;;;;;;9.20;89.90;;;;;;5098740;28;19924;-62
2024/03/31 03:45:07;;;;;;;;;;;9.20;89.90;;;;;;5081919;28;19985;-72
2024/03/31 03:47:40;;;;;;;;;;;9.20;89.90;;;;;;5100149;28;19927;-72
2024/03/31 03:50:12;;;;;;;;;;;9.20;89.90;;;;;;5115771;27;19927;-58
2024/03/31 03:52:44;;;;;;;;;;;9.20;89.90;;;;;;5099579;28;19980;-58
2024/03/31 03:55:17;;;;;;;;;;;9.20;89.90;;;;;;5097470;28;20002;-59
2024/03/31 03:57:51;;;;;;;;;;;9.20;90.00;;;;;;5082673;28;20319;-58
2024/03/31 04:00:25;;;;;;;;;;;9.20;90.00;;;;;;5114972;27;20018;-58
2024/03/31 04:02:59;;;;;;;;;;;9.20;89.90;;;;;;5066694;28;19934;-58
2024/03/31 04:05:33;;;;;;;;;;;9.20;90.00;;;;;;5092404;28;19932;-59
2024/03/31 04:08:05;;;;;;;;;;;9.20;90.00;;;;;;5066382;28;19923;-57
2024/03/31 04:10:39;;;;;;;;;;;9.20;90.00;;;;;;5080689;28;19935;-58
2024/03/31 04:13:12;;;;;;;;;;;9.20;89.90;;;;;;5096747;28;19931;-59
2024/03/31 04:15:56;;;;;;;;;;;9.20;89.80;;;;;;5076625;28;20464;-58
2024/03/31 04:18:33;;;;;;;;;;;9.20;89.90;;;;;;5078985;28;19985;-58
2024/03/31 04:21:08;;;;;;;;;;;9.10;89.90;;;;;;5111821;27;19932;-59
2024/03/31 04:23:40;;;;;;;;;;;9.10;89.80;;;;;;5081502;28;19931;-59
2024/03/31 04:26:13;;;;;;;;;;;9.10;89.80;;;;;;5115058;27;19931;-58
2024/03/31 04:28:50;;;;;;;;;;;9.10;89.80;;;;;;5081412;28;19924;-59
2024/03/31 04:31:23;;;;;;;;;;;9.10;89.70;;;;;;5098744;28;19935;-58
2024/03/31 04:33:55;;;;;;;;;;;9.10;89.70;;;;;;5099964;28;19924;-59
2024/03/31 04:36:28;;;;;;;;;;;9.10;89.70;;;;;;5080021;28;19940;-59
2024/03/31 04:39:00;;;;;;;;;;;9.00;89.70;;;;;;5077980;28;20418;-59
2024/03/31 04:41:40;;;;;;;;;;;9.00;89.60;;;;;;5081970;28;19932;-59
2024/03/31 04:44:14;;;;;;;;;;;9.00;89.60;;;;;;5093942;28;20563;-59
2024/03/31 04:46:49;;;;;;;;;;;8.90;89.60;;;;;;5078523;28;20143;-59
2024/03/31 04:49:22;;;;;;;;;;;8.90;89.70;;;;;;5080682;28;19924;-57
2024/03/31 04:51:55;;;;;;;;;;;8.90;89.60;;;;;;5099084;28;19951;-58
2024/03/31 04:54:29;;;;;;;;;;;8.90;89.80;;;;;;5081315;28;20363;-57
2024/03/31 04:57:02;;;;;;;;;;;8.90;89.90;;;;;;5113749;27;20286;-57
2024/03/31 04:59:36;;;;;;;;;;;9.00;89.90;;;;;;5081029;28;19932;-58
2024/03/31 05:02:09;;;;;;;;;;;8.90;89.90;;;;;;5061994;28;20439;-57
2024/03/31 05:04:41;;;;;;;;;;;8.90;89.90;;;;;;5078422;28;20322;-58
2024/03/31 05:10:20;;;;;;;;;;;9.00;90.00;;;;;;5095285;28;20679;-58
2024/03/31 05:12:52;;;;;;;;;;;9.00;90.00;;;;;;5112884;27;20358;-59
2024/03/31 05:15:27;;;;;;;;;;;9.00;89.90;;;;;;5113853;27;20425;-58
2024/03/31 05:18:00;;;;;;;;;;;9.00;89.90;;;;;;5064964;28;19932;-58
2024/03/31 05:20:32;;;;;;;;;;;9.00;89.90;;;;;;5109160;27;19928;-57
2024/03/31 05:23:04;;;;;;;;;;;9.00;90.00;;;;;;5088645;28;19973;-58
2024/03/31 05:25:38;;;;;;;;;;;9.00;90.00;;;;;;5081103;28;19928;-59
2024/03/31 05:28:11;;;;;;;;;;;9.00;90.10;;;;;;5080317;28;19971;-59
2024/03/31 05:30:53;;;;;;;;;;;9.00;90.20;;;;;;5075922;28;19932;-58
2024/03/31 05:33:26;;;;;;;;;;;9.10;90.20;;;;;;5094510;28;20011;-59
2024/03/31 05:35:59;;;;;;;;;;;9.10;90.10;;;;;;5098619;28;19955;-58
2024/03/31 05:38:31;;;;;;;;;;;9.00;90.10;;;;;;5076762;28;19928;-57
2024/03/31 05:41:12;;;;;;;;;;;9.10;90.10;;;;;;5115546;27;19923;-59
2024/03/31 05:43:44;;;;;;;;;;;9.10;90.10;;;;;;5080139;28;19924;-58
2024/03/31 05:46:20;;;;;;;;;;;9.10;90.10;;;;;;5078843;28;20343;-58
2024/03/31 05:48:52;;;;;;;;;;;9.10;90.20;;;;;;5078297;28;19928;-57
2024/03/31 05:51:29;;;;;;;;;;;9.10;90.10;;;;;;5114234;27;19930;-59
2024/03/31 05:54:01;;;;;;;;;;;9.10;90.10;;;;;;5097278;28;19932;-60
2024/03/31 05:56:35;;;;;;;;;;;9.10;90.10;;;;;;5071649;28;20371;-58
2024/03/31 05:59:07;;;;;;;;;;;9.20;90.10;;;;;;5112950;27;19992;-59
2024/03/31 06:01:42;;;;;;;;;;;9.20;90.10;;;;;;5075475;28;20346;-58
2024/03/31 06:04:15;;;;;;;;;;;9.20;90.00;;;;;;5069288;28;20401;-62
2024/03/31 06:06:48;;;;;;;;;;;9.20;90.00;;;;;;5109152;27;20445;-61
2024/03/31 06:09:20;;;;;;;;;;;9.30;89.90;;;;;;5093838;28;19956;-60
2024/03/31 06:11:54;;;;;;;;;;;9.40;89.90;;;;;;5095715;28;19928;-60
2024/03/31 06:14:27;;;;;;;;;;;9.40;89.90;;;;;;5096815;28;19930;-60
2024/03/31 06:17:01;;;;;;;;;;;9.50;89.70;;;;;;5080619;28;19924;-60
2024/03/31 06:19:33;;;;;;;;;;;9.50;89.70;;;;;;5079509;28;19935;-60
2024/03/31 06:22:06;;;;;;;;;;;9.60;89.70;;;;;;5111358;27;19924;-61
2024/03/31 06:24:38;;;;;;;;;;;9.60;89.50;;;;;;5077543;28;19928;-60
2024/03/31 06:27:12;;;;;;;;;;;9.70;89.20;;;;;;5113206;27;20329;-60
2024/03/31 06:29:47;;;;;;;;;;;9.70;89.20;;;;;;5077720;28;20425;-62
2024/03/31 06:32:22;;;;;;;;;;;9.70;89.40;;;;;;5079781;28;20370;-60
2024/03/31 06:34:55;;;;;;;;;;;9.80;89.20;;;;;;5060633;28;19932;-61
2024/03/31 06:37:27;;;;;;;;;;;9.90;89.00;;;;;;5079045;28;19924;-60
2024/03/31 06:40:00;;;;;;;;;;;9.90;89.40;;;;;;5079571;28;19924;-62
2024/03/31 06:42:34;;;;;;;;;;;10.00;89.60;;;;;;5113119;27;20027;-60
2024/03/31 06:45:06;;;;;;;;;;;10.10;89.50;;;;;;5098261;28;19931;-61
2024/03/31 06:47:41;;;;;;;;;;;10.10;89.10;;;;;;5078445;28;19969;-60
2024/03/31 06:50:14;;;;;;;;;;;10.10;89.50;;;;;;5077520;28;19924;-61
2024/03/31 06:52:47;;;;;;;;;;;10.20;89.20;;;;;;5080024;28;19931;-60
2024/03/31 06:55:19;;;;;;;;;;;10.30;89.40;;;;;;5077651;28;20333;-61
2024/03/31 06:57:53;;;;;;;;;;;10.30;89.60;;;;;;5081025;28;19932;-61
2024/03/31 07:00:31;;;;;;;;;;;10.40;89.50;;;;;;5074346;28;19939;-62
2024/03/31 07:03:05;;;;;;;;;;;10.40;89.40;;;;;;5059144;28;19959;-60
2024/03/31 07:05:37;;;;;;;;;;;10.40;89.20;;;;;;5076301;28;20019;-62
2024/03/31 07:08:10;;;;;;;;;;;10.50;89.50;;;;;;5115985;27;19924;-62
2024/03/31 07:10:36;;;;;;;;;;;10.50;89.50;;;;;;5082119;28;19928;-61
2024/03/31 07:13:10;;;;;;;;;;;10.60;89.70;;;;;;5100530;28;19927;-66
2024/03/31 07:15:42;;;;;;;;;;;10.60;89.50;;;;;;5083068;28;19939;-66
2024/03/31 07:18:16;;;;;;;;;;;10.60;89.60;;;;;;5082531;28;20014;-67
2024/03/31 07:20:49;;;;;;;;;;;10.70;89.70;;;;;;5081891;28;20803;-66
2024/03/31 07:23:23;;;;;;;;;;;10.80;89.60;;;;;;5086798;28;19977;-67
2024/03/31 07:25:56;;;;;;;;;;;10.90;89.40;;;;;;5084033;28;19930;-66
2024/03/31 07:28:36;;;;;;;;;;;11.00;89.50;;;;;;5062957;28;19928;-67
2024/03/31 07:31:09;;;;;;;;;;;11.10;89.40;;;;;;5083462;28;20374;-67
2024/03/31 07:33:44;;;;;;;;;;;11.10;89.30;;;;;;5081482;28;20395;-67
2024/03/31 07:36:17;;;;;;;;;;;11.20;89.20;;;;;;5083267;28;20374;-67
2024/03/31 07:38:49;;;;;;;;;;;11.20;89.10;;;;;;5101270;28;20424;-67
2024/03/31 07:41:21;;;;;;;;;;;11.20;89.00;;;;;;5100830;28;19931;-67
2024/03/31 07:43:54;;;;;;;;;;;11.40;89.00;;;;;;5101617;28;19924;-68
2024/03/31 07:46:26;;;;;;;;;;;11.50;89.00;;;;;;5099331;28;19930;-67
2024/03/31 07:49:01;;;;;;;;;;;11.60;88.90;;;;;;5100437;28;19935;-68
2024/03/31 07:51:32;;;;;;;;;;;11.70;88.90;;;;;;5097079;28;19939;-65
2024/03/31 07:53:59;;;;;;;;;;;11.80;88.60;;;;;;5100860;28;19928;-67
2024/03/31 07:56:31;;;;;;;;;;;12.00;88.50;;;;;;5097921;28;19947;-67
2024/03/31 07:59:04;;;;;;;;;;;12.00;88.20;;;;;;5100528;28;19931;-68
2024/03/31 08:01:36;;;;;;;;;;;12.20;87.90;;;;;;5099493;28;19934;-65
2024/03/31 08:04:11;;;;;;;;;;;12.30;87.60;;;;;;5099873;28;19968;-68
2024/03/31 08:06:43;;;;;;;;;;;12.50;87.30;;;;;;5098668;28;20011;-68
2024/03/31 08:09:17;;;;;;;;;;;12.70;87.00;;;;;;5098556;28;20022;-64
2024/03/31 08:11:50;;;;;;;;;;;12.80;86.50;;;;;;5099984;28;20045;-66
2024/03/31 08:14:23;;;;;;;;;;;13.00;86.10;;;;;;5098895;28;19924;-66
2024/03/31 08:16:55;;;;;;;;;;;13.20;85.60;;;;;;5100521;28;19924;-68
2024/03/31 08:19:29;;;;;;;;;;;13.30;84.50;;;;;;5091192;28;20000;-67
2024/03/31 08:22:02;;;;;;;;;;;13.40;84.30;;;;;;5098189;28;19923;-69
2024/03/31 08:24:28;;;;;;;;;;;13.50;83.60;;;;;;5098307;28;19984;-61
2024/03/31 08:27:00;;;;;;;;;;;13.70;83.40;;;;;;5098500;28;19924;-64
2024/03/31 08:29:33;;;;;;;;;;;13.80;82.80;;;;;;5099034;28;20041;-60
2024/03/31 08:32:06;;;;;;;;;;;13.90;82.30;;;;;;5097789;28;19958;-60
2024/03/31 08:34:47;;;;;;;;;;;14.10;81.80;;;;;;5098578;28;19934;-61
2024/03/31 08:37:20;;;;;;;;;;;14.10;81.10;;;;;;5097066;28;19927;-63
2024/03/31 08:39:53;;;;;;;;;;;14.20;80.60;;;;;;5100285;28;20414;-60
2024/03/31 08:42:30;;;;;;;;;;;14.20;79.70;;;;;;5098602;28;19924;-61
2024/03/31 08:45:05;;;;;;;;;;;14.30;79.10;;;;;;5098033;28;19977;-63
2024/03/31 08:47:39;;;;;;;;;;;14.30;79.00;;;;;;5099645;28;19924;-60
2024/03/31 08:50:13;;;;;;;;;;;14.40;79.10;;;;;;5099964;28;19924;-62
2024/03/31 08:52:46;;;;;;;;;;;14.50;78.50;;;;;;5096195;28;19928;-61
2024/03/31 08:55:19;;;;;;;;;;;14.50;78.60;;;;;;5098522;28;20375;-61
2024/03/31 08:57:51;;;;;;;;;;;14.60;78.50;;;;;;5100530;28;19928;-61
2024/03/31 09:00:26;;;;;;;;;;;14.60;78.40;;;;;;5098291;28;19924;-61
2024/03/31 09:02:58;;;;;;;;;;;14.70;78.40;;;;;;5099298;28;19928;-61
2024/03/31 09:05:32;;;;;;;;;;;14.70;77.90;;;;;;5099517;28;19927;-61
2024/03/31 09:08:06;;;;;;;;;;;14.80;78.00;;;;;;5100461;28;19955;-61
2024/03/31 09:10:39;;;;;;;;;;;14.80;77.70;;;;;;5096883;28;20046;-62
2024/03/31 09:13:12;;;;;;;;;;;14.80;77.60;;;;;;5097385;28;19932;-62
2024/03/31 09:15:45;;;;;;;;;;;14.90;77.30;;;;;;5097550;28;19924;-60
2024/03/31 09:18:17;;;;;;;;;;;14.90;77.10;;;;;;5098686;28;19956;-60
2024/03/31 09:20:51;;;;;;;;;;;15.00;76.70;;;;;;5098132;28;20388;-61
2024/03/31 09:23:24;;;;;;;;;;;15.00;76.70;;;;;;5099091;28;19980;-61
2024/03/31 09:25:57;;;;;;;;;;;15.10;76.30;;;;;;5079461;28;19928;-60
2024/03/31 09:28:29;;;;;;;;;;;15.10;75.90;;;;;;5100162;28;19924;-60
2024/03/31 09:31:02;;;;;;;;;;;15.20;76.00;;;;;;5097507;28;19980;-61
2024/03/31 09:33:37;;;;;;;;;;;15.50;74.90;;;;;;5099344;28;20391;-61
2024/03/31 09:36:10;;;;;;;;;;;15.90;74.50;;;;;;5096408;28;20011;-62
2024/03/31 09:38:43;;;;;;;;;;;16.00;74.00;;;;;;5097310;28;19924;-61
2024/03/31 09:41:17;;;;;;;;;;;16.00;73.70;;;;;;5098722;28;19924;-61
2024/03/31 09:43:51;;;;;;;;;;;16.20;73.30;;;;;;5099543;28;19970;-60
2024/03/31 09:46:23;;;;;;;;;;;16.40;73.30;;;;;;5097304;28;19923;-61
2024/03/31 09:49:00;;;;;;;;;;;16.60;72.80;;;;;;5096570;28;19977;-60
2024/03/31 09:51:36;;;;;;;;;;;16.70;71.60;;;;;;5097911;28;20006;-61
2024/03/31 09:54:13;;;;;;;;;;;16.80;71.70;;;;;;5095394;28;19985;-61
2024/03/31 09:56:52;;;;;;;;;;;16.90;71.70;;;;;;5099137;28;19958;-61
2024/03/31 09:59:26;;;;;;;;;;;17.10;70.70;;;;;;5095884;28;19970;-61
2024/03/31 10:01:59;;;;;;;;;;;17.20;69.40;;;;;;5098546;28;19924;-60
2024/03/31 10:04:36;;;;;;;;;;;17.20;68.80;;;;;;5097413;28;20053;-61
2024/03/31 10:07:17;;;;;;;;;;;17.30;69.40;;;;;;5098142;28;19931;-61
2024/03/31 10:09:51;;;;;;;;;;;17.20;70.30;;;;;;5096116;28;19937;-61
2024/03/31 10:12:24;;;;;;;;;;;17.00;69.90;;;;;;5098164;28;19924;-61
2024/03/31 10:14:57;;;;;;;;;;;16.90;70.10;;;;;;5097488;28;20331;-62
2024/03/31 10:17:29;;;;;;;;;;;16.90;69.70;;;;;;5096913;28;20486;-61
2024/03/31 10:20:02;;;;;;;;;;;16.90;69.70;;;;;;5098462;28;19928;-61
2024/03/31 10:22:37;;;;;;;;;;;17.00;69.10;;;;;;5097591;28;19982;-60
2024/03/31 10:25:10;;;;;;;;;;;17.10;69.30;;;;;;5097173;28;19968;-61
2024/03/31 10:27:43;;;;;;;;;;;17.30;68.60;;;;;;5095922;28;19928;-60
2024/03/31 10:30:17;;;;;;;;;;;17.50;68.50;;;;;;5097167;28;19932;-61
2024/03/31 10:32:49;;;;;;;;;;;17.50;68.50;;;;;;5097170;28;19947;-61
2024/03/31 10:35:30;;;;;;;;;;;17.60;67.80;;;;;;5096785;28;19928;-61
2024/03/31 10:38:04;;;;;;;;;;;17.70;67.70;;;;;;5095744;28;19923;-61
2024/03/31 10:40:38;;;;;;;;;;;17.90;68.30;;;;;;5095454;28;19967;-62
2024/03/31 10:43:12;;;;;;;;;;;17.90;68.30;;;;;;5098780;28;19981;-69
2024/03/31 10:45:45;;;;;;;;;;;17.90;67.20;;;;;;5098328;28;19931;-61
2024/03/31 10:48:18;;;;;;;;;;;18.00;67.20;;;;;;5096810;28;19935;-62
2024/03/31 10:50:51;;;;;;;;;;;18.10;65.90;;;;;;5096883;28;20019;-62
2024/03/31 10:53:27;;;;;;;;;;;18.00;67.00;;;;;;5077307;28;20290;-62
2024/03/31 10:56:03;;;;;;;;;;;18.10;67.20;;;;;;5098054;28;20411;-62
2024/03/31 10:58:38;;;;;;;;;;;18.20;65.80;;;;;;5096772;28;19931;-62
2024/03/31 11:01:16;;;;;;;;;;;18.10;66.40;;;;;;5098562;28;19927;-61
2024/03/31 11:03:49;;;;;;;;;;;18.20;66.30;;;;;;5098425;28;19935;-62
2024/03/31 11:10:13;;;;;;;;;;;18.30;67.30;;;;;;5076796;28;20405;-61
2024/03/31 11:12:46;;;;;;;;;;;18.40;66.80;;;;;;5078516;28;19928;-61
2024/03/31 11:15:20;;;;;;;;;;;18.40;66.90;;;;;;5096583;28;19935;-61
2024/03/31 11:17:53;;;;;;;;;;;18.50;66.80;;;;;;5095660;28;19944;-61
2024/03/31 11:20:26;;;;;;;;;;;18.60;66.30;;;;;;5097795;28;19934;-61
2024/03/31 11:22:59;;;;;;;;;;;18.80;65.70;;;;;;5097447;28;19925;-61
2024/03/31 11:25:33;;;;;;;;;;;18.80;66.30;;;;;;5095492;28;19997;-62
2024/03/31 11:28:06;;;;;;;;;;;18.80;65.80;;;;;;5096953;28;20019;-62
2024/03/31 11:30:40;;;;;;;;;;;18.80;66.70;;;;;;5097517;28;19924;-61
2024/03/31 11:33:12;;;;;;;;;;;18.80;67.10;;;;;;5096084;28;19924;-62
2024/03/31 11:35:52;;;;;;;;;;;18.80;66.90;;;;;;5095857;28;19924;-61
2024/03/31 11:38:25;;;;;;;;;;;18.90;65.50;;;;;;5076195;28;19928;-62
2024/03/31 11:40:59;;;;;;;;;;;18.90;65.70;;;;;;5093305;28;20478;-62
2024/03/31 11:43:32;;;;;;;;;;;19.00;65.50;;;;;;5090108;28;19932;-62
2024/03/31 11:46:05;;;;;;;;;;;19.10;65.30;;;;;;5097988;28;20423;-61
2024/03/31 11:48:38;;;;;;;;;;;19.00;66.00;;;;;;5096326;28;19930;-62
2024/03/31 11:51:11;;;;;;;;;;;19.00;65.80;;;;;;5091649;28;19931;-63
2024/03/31 11:53:43;;;;;;;;;;;19.00;65.30;;;;;;5097319;28;19964;-61
2024/03/31 11:56:17;;;;;;;;;;;19.10;66.00;;;;;;5098669;28;19951;-61
2024/03/31 11:58:50;;;;;;;;;;;19.00;65.20;;;;;;5091981;28;19969;-63
2024/03/31 12:01:24;;;;;;;;;;;19.00;65.80;;;;;;5093577;28;20348;-62
2024/03/31 12:03:56;;;;;;;;;;;19.00;65.50;;;;;;5100544;28;19932;-61
2024/03/31 12:06:29;;;;;;;;;;;19.00;63.40;;;;;;5097195;28;20130;-60
2024/03/31 12:09:01;;;;;;;;;;;19.10;65.20;;;;;;5093620;28;19951;-62
2024/03/31 12:11:44;;;;;;;;;;;19.10;65.00;;;;;;5099282;28;20018;-62
2024/03/31 12:14:16;;;;;;;;;;;19.10;65.00;;;;;;5099498;28;19934;-62
2024/03/31 12:16:51;;;;;;;;;;;19.20;65.70;;;;;;5100268;28;19931;-62
2024/03/31 12:19:24;;;;;;;;;;;19.10;64.10;;;;;;5097711;28;19946;-62
2024/03/31 12:21:57;;;;;;;;;;;19.00;63.70;;;;;;5099914;28;19934;-63
2024/03/31 12:24:29;;;;;;;;;;;19.00;63.60;;;;;;5097142;28;20278;-61
2024/03/31 12:27:03;;;;;;;;;;;19.00;63.40;;;;;;5098018;28;19959;-62
2024/03/31 12:29:39;;;;;;;;;;;19.00;63.60;;;;;;5100216;28;20255;-61
2024/03/31 12:32:13;;;;;;;;;;;19.00;63.60;;;;;;5100100;28;19934;-62
2024/03/31 12:34:46;;;;;;;;;;;19.10;62.90;;;;;;5099015;28;19924;-61
2024/03/31 12:37:25;;;;;;;;;;;19.10;63.50;;;;;;5098256;28;19925;-62
2024/03/31 12:39:58;;;;;;;;;;;19.10;64.20;;;;;;5098957;28;20401;-62
2024/03/31 12:42:29;;;;;;;;;;;19.10;63.50;;;;;;5090101;28;19925;-62
2024/03/31 12:45:24;;;;;;;;;;;19.10;63.40;;;;;;5096396;28;21936;-62
2024/03/31 12:48:05;;;;;;;;;;;19.00;61.10;;;;;;5097899;28;20018;-61
2024/03/31 12:50:47;;;;;;;;;;;19.00;62.90;;;;;;5093375;28;19982;-61
2024/03/31 12:53:20;;;;;;;;;;;19.00;62.80;;;;;;5094546;28;19924;-62
2024/03/31 12:55:52;;;;;;;;;;;19.00;64.20;;;;;;5096415;28;20020;-62
2024/03/31 12:58:20;;;;;;;;;;;19.00;62.20;;;;;;5098697;28;20339;-62
2024/03/31 13:00:53;;;;;;;;;;;19.10;62.90;;;;;;5096865;28;20004;-62
2024/03/31 13:03:27;;;;;;;;;;;19.10;62.10;;;;;;5098215;28;20425;-59
2024/03/31 13:06:00;;;;;;;;;;;19.10;61.30;;;;;;5094492;28;19927;-58
2024/03/31 13:08:33;;;;;;;;;;;19.10;62.40;;;;;;5098219;28;19932;-59
2024/03/31 13:11:05;;;;;;;;;;;19.10;62.30;;;;;;5092359;28;20027;-58
2024/03/31 13:13:46;;;;;;;;;;;19.10;62.40;;;;;;5090042;28;19930;-60
2024/03/31 13:16:18;;;;;;;;;;;19.10;63.30;;;;;;5096790;28;19928;-59
2024/03/31 13:18:51;;;;;;;;;;;19.10;61.70;;;;;;5098296;28;19935;-58
2024/03/31 13:21:23;;;;;;;;;;;19.10;62.00;;;;;;5098073;28;19934;-60
2024/03/31 13:23:56;;;;;;;;;;;19.10;63.10;;;;;;5099546;28;20396;-58
2024/03/31 13:26:28;;;;;;;;;;;19.10;61.10;;;;;;5094286;28;19985;-60
2024/03/31 13:29:02;;;;;;;;;;;19.10;61.50;;;;;;5098087;28;19989;-58
2024/03/31 13:31:35;;;;;;;;;;;19.10;61.00;;;;;;5096343;28;20421;-59
2024/03/31 13:34:08;;;;;;;;;;;19.10;61.50;;;;;;5098101;28;19939;-58
2024/03/31 13:36:40;;;;;;;;;;;19.10;61.70;;;;;;5097318;28;19931;-59
2024/03/31 13:39:13;;;;;;;;;;;19.10;62.00;;;;;;5093741;28;20366;-59
2024/03/31 13:41:47;;;;;;;;;;;19.20;62.30;;;;;;5094977;28;19939;-58
2024/03/31 13:44:21;;;;;;;;;;;19.20;63.30;;;;;;5097919;28;20379;-59
2024/03/31 13:46:47;;;;;;;;;;;19.20;61.50;;;;;;5096556;28;19928;-58
2024/03/31 13:49:20;;;;;;;;;;;19.20;61.40;;;;;;5095607;28;19932;-61
2024/03/31 13:51:52;;;;;;;;;;;19.20;60.90;;;;;;5090778;28;19924;-61
2024/03/31 13:54:25;;;;;;;;;;;19.10;60.80;;;;;;5098900;28;19936;-58
2024/03/31 13:56:57;;;;;;;;;;;19.10;60.30;;;;;;5096835;28;19938;-59
2024/03/31 13:59:32;;;;;;;;;;;19.10;61.50;;;;;;5098510;28;19924;-59
2024/03/31 14:02:04;;;;;;;;;;;19.10;60.70;;;;;;5097434;28;19932;-59
2024/03/31 14:04:37;;;;;;;;;;;19.10;63.00;;;;;;5080178;28;19963;-59
2024/03/31 14:07:09;;;;;;;;;;;19.00;63.10;;;;;;5092654;28;19938;-58
2024/03/31 14:09:42;;;;;;;;;;;18.90;62.90;;;;;;5098288;28;19928;-58
2024/03/31 14:12:14;;;;;;;;;;;18.80;62.80;;;;;;5091849;28;19924;-59
2024/03/31 14:14:50;;;;;;;;;;;18.80;62.50;;;;;;5096209;28;19928;-66
2024/03/31 14:17:22;;;;;;;;;;;18.70;64.80;;;;;;5094838;28;19924;-65
2024/03/31 14:19:48;;;;;;;;;;;18.70;63.50;;;;;;5097532;28;20397;-66
2024/03/31 14:22:21;;;;;;;;;;;18.60;64.20;;;;;;5093416;28;19927;-65
2024/03/31 14:24:54;;;;;;;;;;;18.60;63.80;;;;;;5095320;28;19931;-65
2024/03/31 14:27:26;;;;;;;;;;;18.60;62.70;;;;;;5097841;28;19924;-65
2024/03/31 14:29:54;;;;;;;;;;;18.60;62.70;;;;;;5098932;28;20014;-65
2024/03/31 14:32:26;;;;;;;;;;;18.60;62.90;;;;;;5096473;28;20303;-65
2024/03/31 14:34:59;;;;;;;;;;;18.60;63.70;;;;;;5098321;28;19931;-65
2024/03/31 14:37:31;;;;;;;;;;;18.70;63.70;;;;;;5093548;28;20006;-66
2024/03/31 14:40:05;;;;;;;;;;;18.80;63.80;;;;;;5084728;28;19999;-67
2024/03/31 14:42:38;;;;;;;;;;;18.70;62.70;;;;;;5091954;28;19939;-66
2024/03/31 14:45:20;;;;;;;;;;;18.70;63.30;;;;;;5091800;28;19944;-64
2024/03/31 14:47:53;;;;;;;;;;;18.70;64.60;;;;;;5097085;28;20385;-65
2024/03/31 14:50:26;;;;;;;;;;;18.80;63.30;;;;;;5093080;28;19924;-65
2024/03/31 14:52:58;;;;;;;;;;;18.80;62.80;;;;;;5096001;28;19931;-65
2024/03/31 14:55:31;;;;;;;;;;;18.90;63.80;;;;;;5089794;28;19935;-66
2024/03/31 14:58:06;;;;;;;;;;;18.90;63.40;;;;;;5092003;28;19928;-66
2024/03/31 15:00:42;;;;;;;;;;;18.90;62.60;;;;;;5091598;28;19928;-67
2024/03/31 15:03:15;;;;;;;;;;;18.90;62.50;;;;;;5090903;28;20001;-64
2024/03/31 15:05:50;;;;;;;;;;;18.90;63.30;;;;;;5096335;28;20325;-67